Terminal Aerodrome Forecast
Issued by NWS Tampa Bay Area, FL

Home | Current Version | Previous Version | Text Only | Print | Product List | Glossary On
Versions: 1 2 3 4 5 6 7 8 9 10 11 12
000
FTUS42 KTBW 301700
TAFSRQ
TAF
KSRQ 301726Z 3018/3118 23007KT P6SM SCT250
     FM301900 30007KT P6SM SCT025 BKN035
      TEMPO 3019/3022 BKN025
     FM302200 33010KT P6SM SCT250
     FM310100 36008KT P6SM SCT250
     FM310500 02005KT P6SM SCT250=

USA.gov is the U.S. government's official web portal to all federal, state and local government web resources and services.